createdAt,value
2022-10-21T00:00:34.954Z,3.35
2022-10-21T00:03:02.741Z,3.40
2022-10-21T00:05:30.385Z,3.22
2022-10-21T00:07:58.357Z,3.65
2022-10-21T00:10:26.220Z,3.50
2022-10-21T00:12:53.793Z,2.80
2022-10-21T00:15:21.292Z,3.65
2022-10-21T00:17:50.151Z,4.00
2022-10-21T00:20:17.989Z,3.67
2022-10-21T00:22:45.543Z,3.67
2022-10-21T00:25:13.298Z,3.00
2022-10-21T00:27:41.316Z,2.90
2022-10-21T00:30:09.929Z,3.40
2022-10-21T00:32:37.862Z,3.55
2022-10-21T00:35:07.446Z,3.53
2022-10-21T00:37:35.051Z,3.28
2022-10-21T00:40:02.693Z,3.65
2022-10-21T00:42:31.956Z,3.22
2022-10-21T00:45:17.169Z,3.85
2022-10-21T00:50:22.807Z,3.70
2022-10-21T00:52:50.383Z,3.40
2022-10-21T00:55:18.145Z,3.30
2022-10-21T00:57:45.663Z,3.33
2022-10-21T01:00:13.690Z,3.53
2022-10-21T01:02:41.251Z,3.60
2022-10-21T01:05:10.998Z,3.75
2022-10-21T01:07:41.217Z,3.75
2022-10-21T01:10:09.539Z,3.85
2022-10-21T01:12:47.044Z,4.20
2022-10-21T01:15:19.120Z,3.63
2022-10-21T01:17:49.810Z,3.75
2022-10-21T01:20:39.067Z,4.22
2022-10-21T01:23:29.461Z,4.15
2022-10-21T01:26:09.830Z,3.70
2022-10-21T01:28:44.879Z,3.55
2022-10-21T01:31:19.510Z,3.63
2022-10-21T01:33:50.776Z,3.45
2022-10-21T01:36:23.531Z,4.20
2022-10-21T01:38:59.878Z,4.07
2022-10-21T01:41:29.957Z,3.65
2022-10-21T01:44:01.740Z,3.60
2022-10-21T01:46:32.793Z,4.03
2022-10-21T01:49:01.699Z,3.53
2022-10-21T01:51:29.338Z,3.65
2022-10-21T01:54:01.083Z,3.45
2022-10-21T01:56:29.161Z,3.35
2022-10-21T01:58:57.069Z,4.20
2022-10-21T02:01:25.220Z,3.35
2022-10-21T02:03:55.275Z,3.20
2022-10-21T02:06:22.750Z,2.50
2022-10-21T02:08:50.374Z,3.55
2022-10-21T02:11:19.066Z,3.22
2022-10-21T02:13:49.394Z,3.45
2022-10-21T02:16:17.877Z,3.47
2022-10-21T02:18:45.345Z,3.80
2022-10-21T02:21:16.005Z,3.50
2022-10-21T02:23:45.345Z,3.38
2022-10-21T02:26:13.046Z,3.13
2022-10-21T02:31:20.052Z,3.78
2022-10-21T02:36:17.842Z,3.35
2022-10-21T02:38:48.932Z,4.35
2022-10-21T02:41:18.830Z,2.92
2022-10-21T02:43:48.335Z,3.00
2022-10-21T02:46:16.248Z,3.75
2022-10-21T02:48:44.821Z,3.60
2022-10-21T02:51:12.487Z,3.53
2022-10-21T02:53:41.478Z,4.18
2022-10-21T02:56:09.369Z,4.22
2022-10-21T02:58:37.239Z,3.72
2022-10-21T03:01:04.748Z,3.95
2022-10-21T03:03:32.251Z,3.40
2022-10-21T03:05:59.761Z,3.83
2022-10-21T03:08:27.471Z,4.80
2022-10-21T03:10:56.996Z,3.45
2022-10-21T03:13:24.730Z,3.65
2022-10-21T03:15:52.780Z,3.35
2022-10-21T03:18:20.410Z,3.90
2022-10-21T03:20:49.617Z,3.50
2022-10-21T03:23:17.191Z,3.30
2022-10-21T03:25:44.785Z,3.65
2022-10-21T03:28:14.925Z,2.80
2022-10-21T03:30:42.972Z,3.13
2022-10-21T03:33:10.495Z,3.47
2022-10-21T03:35:38.138Z,3.80
2022-10-21T03:38:05.794Z,3.30
2022-10-21T03:40:33.648Z,3.78
2022-10-21T03:43:01.158Z,4.07
2022-10-21T03:45:30.754Z,3.33
2022-10-21T03:47:58.458Z,3.97
2022-10-21T03:50:26.828Z,3.17
2022-10-21T03:52:54.560Z,4.82
2022-10-21T03:55:25.400Z,4.10
2022-10-21T03:57:53.157Z,4.35
2022-10-21T04:00:21.259Z,3.40
2022-10-21T04:02:50.452Z,4.05
2022-10-21T04:05:19.818Z,4.43
2022-10-21T04:07:50.679Z,4.82
2022-10-21T04:10:22.379Z,5.33
2022-10-21T04:12:49.918Z,9.95
2022-10-21T04:15:17.462Z,8.55
2022-10-21T04:17:48.110Z,7.30
2022-10-21T04:20:17.152Z,7.28
2022-10-21T04:22:44.856Z,8.27
2022-10-21T04:25:12.439Z,7.18
2022-10-21T04:27:39.984Z,7.60
2022-10-21T04:30:08.442Z,6.78
2022-10-21T04:32:36.170Z,4.60
2022-10-21T04:35:03.940Z,5.22
2022-10-21T04:37:32.831Z,5.03
2022-10-21T04:40:00.338Z,4.47
2022-10-21T04:45:00.262Z,4.28
2022-10-21T04:47:29.966Z,4.45
2022-10-21T04:49:57.491Z,4.82
2022-10-21T04:52:25.241Z,5.07
2022-10-21T04:54:54.355Z,4.80
2022-10-21T04:57:21.879Z,5.78
2022-10-21T04:59:50.587Z,6.25
2022-10-21T05:02:23.023Z,8.02
2022-10-21T05:04:53.529Z,9.32
2022-10-21T05:07:23.853Z,6.53
2022-10-21T05:09:51.791Z,8.45
2022-10-21T05:12:20.665Z,7.28
2022-10-21T05:14:48.749Z,6.95
2022-10-21T05:17:16.226Z,8.38
2022-10-21T05:19:43.731Z,7.30
2022-10-21T05:22:12.623Z,7.80
2022-10-21T05:24:40.599Z,7.55
2022-10-21T05:27:11.906Z,9.25
2022-10-21T05:29:43.598Z,8.88
2022-10-21T05:32:11.765Z,9.77
2022-10-21T05:34:39.312Z,8.52
2022-10-21T05:37:06.768Z,9.98
2022-10-21T05:39:34.368Z,10.43
2022-10-21T05:42:01.876Z,9.90
2022-10-21T05:44:29.389Z,10.25
2022-10-21T05:46:58.309Z,10.88
2022-10-21T05:49:26.181Z,10.00
2022-10-21T05:51:53.672Z,9.60
2022-10-21T05:54:21.199Z,10.27
2022-10-21T05:56:48.981Z,12.00
2022-10-21T05:59:16.638Z,11.52
2022-10-21T06:01:44.240Z,12.00
2022-10-21T06:04:13.714Z,11.50
2022-10-21T06:06:41.247Z,11.15
2022-10-21T06:09:09.404Z,10.85
2022-10-21T06:11:37.183Z,10.82
2022-10-21T06:14:04.892Z,10.38
2022-10-21T06:16:35.172Z,10.95
2022-10-21T06:19:05.275Z,10.15
2022-10-21T06:21:34.157Z,8.57
2022-10-21T06:24:02.095Z,8.23
2022-10-21T06:26:32.016Z,9.05
2022-10-21T06:29:02.152Z,9.10
2022-10-21T06:31:29.974Z,8.23
2022-10-21T06:33:57.530Z,8.60
2022-10-21T06:36:25.036Z,10.02
2022-10-21T06:38:53.971Z,9.10
2022-10-21T06:41:21.451Z,9.18
2022-10-21T06:43:49.226Z,7.78
2022-10-21T06:46:17.850Z,6.20
2022-10-21T06:48:45.339Z,6.80
2022-10-21T06:51:15.013Z,7.05
2022-10-21T06:53:42.673Z,7.80
2022-10-21T06:56:12.588Z,7.45
2022-10-21T06:58:43.268Z,6.75
2022-10-21T07:01:21.485Z,7.28
2022-10-21T07:03:59.202Z,6.80
2022-10-21T07:06:26.838Z,7.47
2022-10-21T07:08:58.160Z,7.65
2022-10-21T07:11:28.457Z,6.93
2022-10-21T07:13:55.949Z,6.57
2022-10-21T07:16:24.814Z,6.38
2022-10-21T07:18:53.029Z,7.30
2022-10-21T07:21:21.713Z,7.35
2022-10-21T07:23:59.329Z,7.32
2022-10-21T07:26:29.288Z,7.70
2022-10-21T07:29:00.595Z,8.93
2022-10-21T07:31:29.268Z,6.95
2022-10-21T07:33:56.876Z,6.40
2022-10-21T07:36:25.511Z,5.40
2022-10-21T07:38:53.571Z,4.88
2022-10-21T07:41:22.280Z,4.00
2022-10-21T07:43:51.567Z,3.53
2022-10-21T07:46:20.270Z,3.97
2022-10-21T07:48:47.806Z,2.90
2022-10-21T07:51:16.836Z,2.88
2022-10-21T07:53:46.490Z,3.60
2022-10-21T07:56:15.596Z,3.55
2022-10-21T07:58:43.681Z,2.90
2022-10-21T08:01:12.773Z,4.15
2022-10-21T08:03:40.731Z,3.00
2022-10-21T08:06:08.874Z,3.80
2022-10-21T08:08:37.085Z,3.70
2022-10-21T08:11:04.914Z,3.70
2022-10-21T08:13:32.843Z,3.55
2022-10-21T08:16:00.617Z,3.38
2022-10-21T08:18:30.745Z,3.55
2022-10-21T08:20:58.675Z,3.47
2022-10-21T08:23:26.541Z,3.40
2022-10-21T08:25:55.109Z,3.95
2022-10-21T08:28:23.953Z,4.25
2022-10-21T08:30:51.831Z,4.10
2022-10-21T08:33:22.648Z,3.85
2022-10-21T08:35:51.474Z,3.97
2022-10-21T08:38:20.141Z,4.22
2022-10-21T08:40:50.979Z,3.90
2022-10-21T08:43:22.901Z,4.10
2022-10-21T08:45:52.927Z,3.65
2022-10-21T08:48:21.624Z,4.28
2022-10-21T08:50:50.399Z,4.40
2022-10-21T08:53:21.642Z,3.28
2022-10-21T08:55:49.200Z,3.65
2022-10-21T08:58:18.245Z,3.78
2022-10-21T09:00:47.693Z,3.80
2022-10-21T09:03:22.399Z,3.65
2022-10-21T09:06:04.941Z,3.83
2022-10-21T09:08:36.845Z,3.90
2022-10-21T09:11:10.156Z,3.60
2022-10-21T09:13:49.809Z,3.28
2022-10-21T09:16:20.711Z,4.53
2022-10-21T09:18:52.752Z,3.30
2022-10-21T09:21:23.432Z,3.50
2022-10-21T09:23:58.665Z,3.78
2022-10-21T09:26:34.100Z,4.25
2022-10-21T09:29:02.900Z,3.33
2022-10-21T09:31:30.706Z,3.13
2022-10-21T09:34:00.667Z,3.35
2022-10-21T09:36:32.566Z,3.28
2022-10-21T09:39:03.238Z,3.78
2022-10-21T09:41:33.988Z,3.90
2022-10-21T09:44:02.087Z,3.67
2022-10-21T09:46:30.080Z,4.13
2022-10-21T09:49:36.293Z,3.83
2022-10-21T09:51:46.066Z,3.88
2022-10-21T09:54:17.834Z,3.90
2022-10-21T09:56:47.523Z,3.35
2022-10-21T09:59:16.617Z,3.35
2022-10-21T10:01:44.604Z,3.78
2022-10-21T10:04:15.807Z,3.90
2022-10-21T10:06:44.338Z,4.13
2022-10-21T10:09:17.055Z,3.53
2022-10-21T10:11:53.659Z,4.07
2022-10-21T10:14:29.199Z,4.40
2022-10-21T10:16:57.042Z,5.25
2022-10-21T10:19:25.579Z,4.97
2022-10-21T10:22:10.474Z,4.47
2022-10-21T10:25:19.143Z,4.80
2022-10-21T10:28:04.802Z,5.60
2022-10-21T10:30:50.455Z,5.72
2022-10-21T10:33:21.811Z,4.72
2022-10-21T10:35:50.140Z,5.05
2022-10-21T10:38:20.967Z,5.97
2022-10-21T10:40:49.659Z,5.07
2022-10-21T10:43:25.368Z,4.78
2022-10-21T10:45:55.403Z,4.93
2022-10-21T10:48:25.122Z,4.75
2022-10-21T10:50:52.701Z,4.45
2022-10-21T10:53:23.363Z,4.55
2022-10-21T10:55:55.186Z,4.97
2022-10-21T10:58:26.775Z,4.50
2022-10-21T11:00:58.298Z,4.18
2022-10-21T11:03:30.295Z,4.22
2022-10-21T11:06:02.107Z,4.00
2022-10-21T11:08:33.992Z,4.57
2022-10-21T11:11:03.775Z,4.15
2022-10-21T11:13:33.893Z,4.22
2022-10-21T11:16:11.457Z,4.07
2022-10-21T11:18:41.699Z,3.17
2022-10-21T11:21:15.116Z,3.42
2022-10-21T11:24:01.114Z,3.72
2022-10-21T11:26:34.336Z,3.47
2022-10-21T11:29:08.823Z,3.40
2022-10-21T11:31:59.870Z,3.10
2022-10-21T11:34:36.318Z,3.20
2022-10-21T11:37:07.872Z,3.42
2022-10-21T11:39:38.046Z,3.22
2022-10-21T11:42:10.826Z,3.22
2022-10-21T11:44:43.131Z,3.40
2022-10-21T11:47:17.565Z,3.10
2022-10-21T11:49:50.289Z,3.80
2022-10-21T11:52:22.519Z,3.83
2022-10-21T11:55:09.465Z,2.90
2022-10-21T11:57:41.399Z,3.20
2022-10-21T12:00:13.756Z,2.50
2022-10-21T12:02:44.911Z,1.70
2022-10-21T12:05:26.151Z,1.30
2022-10-21T12:07:59.690Z,1.38
2022-10-21T12:10:31.341Z,1.33
2022-10-21T12:13:01.733Z,1.52
2022-10-21T12:15:33.589Z,1.90
2022-10-21T12:18:04.865Z,2.40
2022-10-21T12:20:32.921Z,1.92
2022-10-21T12:23:03.268Z,2.63
2022-10-21T12:25:35.264Z,2.00
2022-10-21T12:28:06.319Z,2.10
2022-10-21T12:30:36.106Z,2.35
2022-10-21T12:33:15.839Z,2.40
2022-10-21T12:35:47.074Z,3.60
2022-10-21T12:38:22.557Z,3.03
2022-10-21T12:40:50.799Z,3.38
2022-10-21T12:43:23.866Z,2.88
2022-10-21T12:46:05.089Z,2.22
2022-10-21T12:48:36.446Z,2.95
2022-10-21T12:51:05.356Z,1.90
2022-10-21T12:53:41.388Z,1.92
2022-10-21T12:56:10.293Z,2.28
2022-10-21T12:58:40.044Z,2.35
2022-10-21T13:01:08.826Z,1.90
2022-10-21T13:03:52.035Z,2.00
2022-10-21T13:06:49.702Z,1.85
2022-10-21T13:09:37.446Z,2.20
2022-10-21T13:12:14.374Z,1.48
2022-10-21T13:14:42.721Z,1.85
2022-10-21T13:17:29.983Z,1.52
2022-10-21T13:20:18.830Z,2.00
2022-10-21T13:22:48.356Z,1.55
2022-10-21T13:25:21.342Z,1.77
2022-10-21T13:27:52.183Z,1.88
2022-10-21T13:30:27.807Z,2.20
2022-10-21T13:33:00.430Z,1.98
2022-10-21T13:35:30.686Z,2.35
2022-10-21T13:38:03.328Z,1.90
2022-10-21T13:40:33.043Z,1.77
2022-10-21T13:43:04.197Z,2.38
2022-10-21T13:45:36.792Z,2.55
2022-10-21T13:48:05.818Z,2.10
2022-10-21T13:50:35.188Z,2.05
2022-10-21T13:53:06.742Z,1.88
2022-10-21T13:55:34.669Z,2.20
2022-10-21T13:58:02.229Z,2.30
2022-10-21T14:00:30.845Z,2.25
2022-10-21T14:03:01.592Z,2.10
2022-10-21T14:05:38.771Z,2.30
2022-10-21T14:08:14.795Z,2.13
2022-10-21T14:10:45.809Z,1.92
2022-10-21T14:13:13.698Z,2.30
2022-10-21T14:15:42.901Z,2.70
2022-10-21T14:18:24.433Z,2.08
2022-10-21T14:20:55.078Z,2.38
2022-10-21T14:23:24.372Z,2.03
2022-10-21T14:25:53.024Z,2.15
2022-10-21T14:28:21.049Z,1.70
2022-10-21T14:30:49.265Z,2.30
2022-10-21T14:33:20.434Z,1.90
2022-10-21T14:36:04.398Z,2.42
2022-10-21T14:38:36.788Z,2.25
2022-10-21T14:41:08.645Z,2.30
2022-10-21T14:43:37.895Z,2.47
2022-10-21T14:46:06.238Z,2.42
2022-10-21T14:48:34.680Z,2.78
2022-10-21T14:51:03.723Z,2.80
2022-10-21T14:53:33.529Z,3.20
2022-10-21T14:56:05.130Z,2.00
2022-10-21T14:58:34.928Z,2.40
2022-10-21T15:01:04.215Z,2.70
2022-10-21T15:03:46.552Z,3.15
2022-10-21T15:06:15.546Z,2.72
2022-10-21T15:08:43.881Z,2.83
2022-10-21T15:11:23.792Z,3.17
2022-10-21T15:14:15.469Z,3.28
2022-10-21T15:16:46.530Z,3.78
2022-10-21T15:19:17.233Z,3.08
2022-10-21T15:21:47.408Z,4.20
2022-10-21T15:24:18.499Z,5.68
2022-10-21T15:26:48.783Z,6.45
2022-10-21T15:29:23.526Z,3.53
2022-10-21T15:31:52.468Z,5.00
2022-10-21T15:34:20.517Z,4.30
2022-10-21T15:36:48.006Z,3.47
2022-10-21T15:39:15.536Z,4.50
2022-10-21T15:41:43.194Z,3.80
2022-10-21T15:44:20.227Z,3.63
2022-10-21T15:46:50.067Z,4.45
2022-10-21T15:49:19.434Z,3.85
2022-10-21T15:51:47.542Z,4.30
2022-10-21T15:54:15.453Z,3.92
2022-10-21T15:56:43.439Z,4.07
2022-10-21T15:59:16.783Z,5.03
2022-10-21T16:01:45.710Z,6.67
2022-10-21T16:04:14.473Z,5.20
2022-10-21T16:06:46.187Z,6.18
2022-10-21T16:09:19.674Z,6.70
2022-10-21T16:11:58.952Z,6.40
2022-10-21T16:14:29.548Z,6.65
2022-10-21T16:16:59.364Z,8.70
2022-10-21T16:19:26.927Z,9.02
2022-10-21T16:21:54.487Z,9.63
2022-10-21T16:24:22.224Z,9.57
2022-10-21T16:26:50.499Z,10.35
2022-10-21T16:29:19.291Z,9.48
2022-10-21T16:31:47.026Z,10.05
2022-10-21T16:34:15.980Z,9.32
2022-10-21T16:36:43.464Z,9.73
2022-10-21T16:39:13.413Z,8.88
2022-10-21T16:41:41.111Z,8.80
2022-10-21T16:44:08.735Z,8.88
2022-10-21T16:46:37.348Z,8.77
2022-10-21T16:49:07.942Z,8.63
2022-10-21T16:51:40.512Z,8.32
2022-10-21T16:54:08.240Z,7.45
2022-10-21T16:56:35.784Z,7.70
2022-10-21T16:59:03.547Z,7.82
2022-10-21T17:01:31.285Z,7.13
2022-10-21T17:03:58.885Z,6.82
2022-10-21T17:06:27.393Z,7.07
2022-10-21T17:08:56.867Z,8.18
2022-10-21T17:11:25.849Z,6.57
2022-10-21T17:13:53.885Z,8.05
2022-10-21T17:16:21.634Z,6.05
2022-10-21T17:18:49.361Z,6.47
2022-10-21T17:21:20.350Z,6.13
2022-10-21T17:23:48.206Z,7.70
2022-10-21T17:26:17.142Z,6.60
2022-10-21T17:28:44.821Z,6.20
2022-10-21T17:31:15.186Z,6.68
2022-10-21T17:33:43.107Z,7.40
2022-10-21T17:36:13.193Z,6.80
2022-10-21T17:38:41.906Z,7.40
2022-10-21T17:41:09.822Z,6.90
2022-10-21T17:43:38.814Z,7.07
2022-10-21T17:46:06.611Z,7.88
2022-10-21T17:48:34.591Z,9.07
2022-10-21T17:51:03.311Z,9.45
2022-10-21T17:53:31.421Z,9.70
2022-10-21T17:55:59.943Z,8.38
2022-10-21T17:58:27.630Z,9.75
2022-10-21T18:00:57.423Z,12.23
2022-10-21T18:03:25.168Z,12.80
2022-10-21T18:05:53.030Z,12.60
2022-10-21T18:08:20.674Z,13.88
2022-10-21T18:10:56.404Z,12.38
2022-10-21T18:13:24.637Z,12.55
2022-10-21T18:15:52.323Z,15.35
2022-10-21T18:18:24.274Z,15.02
2022-10-21T18:20:52.060Z,13.07
2022-10-21T18:23:19.819Z,12.57
2022-10-21T18:25:47.337Z,16.30
2022-10-21T18:28:14.892Z,14.18
2022-10-21T18:30:43.750Z,12.30
2022-10-21T18:33:11.368Z,13.75
2022-10-21T18:35:41.818Z,14.23
2022-10-21T18:38:09.574Z,14.88
2022-10-21T18:40:39.608Z,13.60
2022-10-21T18:43:35.138Z,13.00
2022-10-21T18:46:02.712Z,12.85
2022-10-21T18:48:30.300Z,14.35
2022-10-21T18:51:05.219Z,18.48
2022-10-21T18:53:34.665Z,13.38
2022-10-21T18:56:03.679Z,9.55
2022-10-21T18:58:31.200Z,9.98
2022-10-21T19:00:58.842Z,9.82
2022-10-21T19:03:26.527Z,10.88
2022-10-21T19:05:54.490Z,10.15
2022-10-21T19:08:25.971Z,10.10
2022-10-21T19:10:53.551Z,11.40
2022-10-21T19:13:21.458Z,10.38
2022-10-21T19:15:48.979Z,10.88
2022-10-21T19:18:16.462Z,9.65
2022-10-21T19:20:45.186Z,10.70
2022-10-21T19:23:12.811Z,11.20
2022-10-21T19:25:41.637Z,12.27
2022-10-21T19:28:09.213Z,10.60
2022-10-21T19:30:38.672Z,10.90
2022-10-21T19:33:06.385Z,11.07
2022-10-21T19:35:33.960Z,10.20
2022-10-21T19:38:05.040Z,11.13
2022-10-21T19:40:35.414Z,10.65
2022-10-21T19:43:04.620Z,9.35
2022-10-21T19:45:35.510Z,9.88
2022-10-21T19:48:03.294Z,8.80
2022-10-21T19:50:30.846Z,10.77
2022-10-21T19:52:58.568Z,10.23
2022-10-21T19:55:26.014Z,11.18
2022-10-21T19:57:57.594Z,11.73
2022-10-21T20:00:26.397Z,9.80
2022-10-21T20:02:53.931Z,10.15
2022-10-21T20:05:21.811Z,10.10
2022-10-21T20:07:49.436Z,10.68
2022-10-21T20:10:20.311Z,11.13
2022-10-21T20:12:47.865Z,10.07
2022-10-21T20:15:15.423Z,8.90
2022-10-21T20:17:44.344Z,9.88
2022-10-21T20:20:11.904Z,10.15
2022-10-21T20:22:39.630Z,10.98
2022-10-21T20:25:07.655Z,8.50
2022-10-21T20:27:35.208Z,8.90
2022-10-21T20:30:02.734Z,7.80
2022-10-21T20:32:31.827Z,9.10
2022-10-21T20:35:00.729Z,8.63
2022-10-21T20:37:28.212Z,8.43
2022-10-21T20:39:55.802Z,8.27
2022-10-21T20:42:23.370Z,9.13
2022-10-21T20:44:50.900Z,8.25
2022-10-21T20:47:19.223Z,8.07
2022-10-21T20:49:46.792Z,7.80
2022-10-21T20:52:15.588Z,7.55
2022-10-21T20:54:43.172Z,6.75
2022-10-21T20:57:10.711Z,7.60
2022-10-21T20:59:38.203Z,7.47
2022-10-21T21:02:05.762Z,7.45
2022-10-21T21:04:33.250Z,6.90
2022-10-21T21:07:00.702Z,6.18
2022-10-21T21:09:44.048Z,6.82
2022-10-21T21:12:17.161Z,6.82
2022-10-21T21:14:44.755Z,6.97
2022-10-21T21:17:12.241Z,7.55
2022-10-21T21:19:40.234Z,7.28
2022-10-21T21:22:07.751Z,7.60
2022-10-21T21:24:36.526Z,7.63
2022-10-21T21:27:03.978Z,7.53
2022-10-21T21:29:31.492Z,7.38
2022-10-21T21:31:58.962Z,8.13
2022-10-21T21:34:26.435Z,8.82
2022-10-21T21:36:53.925Z,8.60
2022-10-21T21:39:22.847Z,8.23
2022-10-21T21:41:51.746Z,8.90
2022-10-21T21:44:19.239Z,7.68
2022-10-21T21:46:46.698Z,8.55
2022-10-21T21:49:14.292Z,9.80
2022-10-21T21:51:41.886Z,9.77
2022-10-21T21:54:09.362Z,8.93
2022-10-21T21:56:37.806Z,9.88
2022-10-21T21:59:06.656Z,10.05
2022-10-21T22:01:34.216Z,9.02
2022-10-21T22:04:02.166Z,9.85
2022-10-21T22:06:30.652Z,9.07
2022-10-21T22:08:58.462Z,11.55
2022-10-21T22:11:26.893Z,12.00
2022-10-21T22:13:54.585Z,10.15
2022-10-21T22:16:25.750Z,10.75
2022-10-21T22:18:53.220Z,10.52
2022-10-21T22:21:20.750Z,10.95
2022-10-21T22:23:48.968Z,11.98
2022-10-21T22:26:17.179Z,11.73
2022-10-21T22:28:44.697Z,12.00
2022-10-21T22:31:12.983Z,12.55
2022-10-21T22:36:16.333Z,12.45
2022-10-21T22:38:44.102Z,12.00
2022-10-21T22:41:12.732Z,11.68
2022-10-21T22:43:40.620Z,12.70
2022-10-21T22:46:29.162Z,12.77
2022-10-21T22:48:57.220Z,11.63
2022-10-21T22:51:24.711Z,12.15
2022-10-21T22:53:55.480Z,11.80
2022-10-21T22:56:24.578Z,12.50
2022-10-21T22:58:52.142Z,10.60
2022-10-21T23:01:19.643Z,10.63
2022-10-21T23:03:47.107Z,11.05
2022-10-21T23:06:16.394Z,11.10
2022-10-21T23:08:43.999Z,11.32
2022-10-21T23:11:11.573Z,11.15
2022-10-21T23:13:51.034Z,12.93
2022-10-21T23:16:26.584Z,11.70
2022-10-21T23:18:54.080Z,12.10
2022-10-21T23:21:23.005Z,12.70
2022-10-21T23:23:50.516Z,12.02
2022-10-21T23:26:20.606Z,12.05
2022-10-21T23:28:48.281Z,11.75
2022-10-21T23:31:15.812Z,12.77
2022-10-21T23:33:43.334Z,12.82
2022-10-21T23:36:10.943Z,12.93
2022-10-21T23:38:39.779Z,10.70
2022-10-21T23:41:07.247Z,13.15
2022-10-21T23:43:34.747Z,12.48
2022-10-21T23:46:02.384Z,13.77
2022-10-21T23:48:29.869Z,13.40
2022-10-21T23:50:57.327Z,12.60
2022-10-21T23:53:24.857Z,12.45
2022-10-21T23:55:53.837Z,14.32
2022-10-21T23:58:21.321Z,13.52
